• Join FlightAware (Why Join?)
  • Login
  • US Flag 
02:05AM EDT


 

Airport Tracker/Info


-or-


 

Live Flight TrackerFlight Track Log ✈ EJA122 ✈ 11-Nov-2013 ✈ KSDF - KCID

Flight Track Log - Related Links

Times and Time Zones

All times are in EST time to prevent confusion due to time zone crossing. See the EJA122 flight status page for this flight to view local times or setup timezone preferences in your user account.

Time Position Orientation Groundspeed Altitude Reporting Facility
EST Latitude Longitude Course Direction KTS MPH feet Rate Location/Type
10:23AM 38.0964 -85.7028 357° North 201 231 5,100  Level Kansas City Center
10:24AM 38.0758 -85.7636 247° West 213 245 8,100 2,280 Climbing Kansas City Center
10:25AM 38.1414 -85.7953 339° North 236 272 9,900 1,080 Climbing Kansas City Center
10:26AM 38.2211 -85.8236 344° North 267 307 10,400 720 Climbing Kansas City Center
10:27AM 38.3050 -85.8525 345° North 288 331 11,400 960 Climbing Kansas City Center
10:28AM 38.5910 -85.9967 357° North  Level FlightAware Approximate
10:28AM 38.3914 -85.8811 345° North 303 349 12,500  Level Kansas City Center
10:29AM 38.5033 -85.9203 345° North 323 372 14,300 1,620 Climbing Kansas City Center
10:30AM 38.6036 -85.9556 345° North 344 396 15,900 1,500 Climbing Kansas City Center
10:31AM 38.7281 -85.9983 345° North 376 433 17,700 1,320 Climbing Indianapolis Center
10:32AM 38.8114 -86.0667 327° Northwest 371 427 18,900 1,200 Climbing Indianapolis Center
10:33AM 38.8683 -86.1700 305° West 357 411 20,200 1,200 Climbing Indianapolis Center
10:34AM 38.9292 -86.2764 306° West 365 420 21,400 1,140 Climbing Indianapolis Center
10:35AM 38.9919 -86.3831 307° West 371 427 22,600 1,200 Climbing Indianapolis Center
10:36AM 39.0664 -86.5122 307° West 373 429 24,000 1,140 Climbing Indianapolis Center
10:37AM 39.1286 -86.6206 307° West 375 432 25,000 840 Climbing Indianapolis Center
10:38AM 39.1922 -86.7300 307° West 380 437 25,800 480 Climbing Indianapolis Center
10:39AM 39.2575 -86.8439 307° West 390 449 26,000 60 Climbing Indianapolis Center
10:40AM 39.3261 -86.9622 307° West 406 467 26,000  Level Indianapolis Center
10:41AM 39.3950 -87.0847 306° West 416 479 26,000  Level Indianapolis Center
10:42AM 39.4783 -87.2300 307° West 420 483 26,000  Level Indianapolis Center
10:43AM 39.5414 -87.3564 303° West 417 480 26,000  Level Indianapolis Center
10:44AM 39.6017 -87.4828 302° West 413 475 26,000  Level Indianapolis Center
10:45AM 39.6636 -87.6081 303° West 413 475 26,000  Level Indianapolis Center
10:47AM 39.7369 -87.7589 302° West 412 474 26,000  Level Indianapolis Center
10:48AM 39.7964 -87.8853 302° West 410 472 26,000  Level Indianapolis Center
10:49AM 39.8578 -88.0122 302° West 412 474 26,000  Level Indianapolis Center
10:49AM 39.8983 -88.1003 301° West 411 473 26,000  Level Chicago Center
10:50AM 39.9692 -88.2506 302° West 407 468 26,000  Level Chicago Center
10:52AM 40.0289 -88.3789 301° West 412 474 26,000  Level Chicago Center
10:53AM 40.0892 -88.5056 302° West 411 473 26,000  Level Chicago Center
10:54AM 40.1500 -88.6353 302° West 412 474 26,000  Level Chicago Center
10:55AM 40.2092 -88.7608 302° West 407 468 26,000  Level Chicago Center
10:56AM 40.2664 -88.8881 301° West 412 474 26,000  Level Chicago Center
10:57AM 40.3258 -89.0169 301° West 413 475 26,000  Level Chicago Center
10:58AM 40.3864 -89.1447 302° West 413 475 26,000  Level Chicago Center
10:59AM 40.4561 -89.2989 301° West 410 472 26,000  Level Chicago Center
11:00AM 40.5147 -89.4283 301° West 412 474 26,000  Level Chicago Center
11:01AM 40.5736 -89.5567 301° West 409 471 26,000 -480 Level Chicago Center
11:02AM 40.6325 -89.6847 301° West 410 472 25,100 -960 Descending Chicago Center
11:03AM 40.6922 -89.8089 302° West 404 465 24,100 -1,080 Descending Chicago Center
11:04AM 40.7703 -89.9106 315° West 399 459 23,000 -540 Descending Chicago Center
11:05AM 40.8528 -90.0386 310° West 386 444 23,000  Level Chicago Center
11:06AM 40.9203 -90.1439 310° West 380 437 23,000 -300 Level Chicago Center
11:07AM 40.9881 -90.2514 310° West 380 437 22,500 -840 Descending Chicago Center
11:08AM 41.0497 -90.3511 309° West 383 441 21,400 -1,140 Descending Chicago Center
11:09AM 41.1150 -90.4558 310° West 371 427 20,200 -1,320 Descending Chicago Center
11:10AM 41.1908 -90.5775 310° West 360 414 18,700 -1,260 Descending Chicago Center
11:11AM 41.2542 -90.6794 310° West 358 412 17,700 -1,200 Descending Chicago Center
11:12AM 41.3178 -90.7814 310° West 358 412 16,300 -1,500 Descending Chicago Center
11:13AM 41.3767 -90.8778 309° West 340 391 14,700 -1,740 Descending Chicago Center
11:14AM 41.4339 -90.9692 310° West 324 373 12,800 -1,740 Descending Chicago Center
11:15AM 41.4897 -91.0619 309° West 322 371 11,200 -960 Descending Chicago Center
11:16AM 41.5486 -91.1572 310° West 330 380 10,900 -180 Descending Chicago Center
11:17AM 41.6036 -91.2444 310° West 317 365 10,900  Level Chicago Center
11:18AM 41.6681 -91.3517 309° West 312 359 10,900 -900 Level Chicago Center
11:19AM 41.7119 -91.4244 309° West 263 303 9,100 -2,040 Descending Chicago Center
11:20AM 41.7533 -91.4928 309° West 238 274 6,700 -2,400 Descending Chicago Center
11:21AM 41.7919 -91.5575 309° West 229 264 4,300 -2,100 Descending Chicago Center
11:22AM 41.8239 -91.6267 302° West 224 258 2,500 -1,200 Descending Chicago Center
11:23AM 41.8517 -91.6647 314° West 188 216 1,900 -600 Descending Chicago Center
11:25AM 41.8833 -91.7000 312° West  Level FlightAware Approximate
11:32AM 41.8847 -91.7108 312° West  Level Estimated
11:33AM 41.8847 -91.7108 312° West  Level Estimated